createdAt,value
2019-02-05T00:07:48.259Z,13.17
2019-02-05T00:17:51.821Z,12.82
2019-02-05T00:27:53.897Z,9.65
2019-02-05T00:37:56.428Z,16.07
2019-02-05T00:47:59.248Z,12.80
2019-02-05T00:58:01.684Z,10.90
2019-02-05T01:08:03.864Z,12.75
2019-02-05T01:18:06.233Z,10.35
2019-02-05T01:28:08.473Z,8.93
2019-02-05T01:38:11.375Z,11.40
2019-02-05T01:48:13.650Z,9.73
2019-02-05T01:58:16.265Z,11.50
2019-02-05T02:08:18.888Z,9.68
2019-02-05T02:18:21.399Z,8.60
2019-02-05T02:28:23.786Z,7.07
2019-02-05T02:38:26.670Z,11.60
2019-02-05T02:48:29.262Z,10.43
2019-02-05T02:58:31.713Z,9.23
2019-02-05T03:08:34.218Z,15.07
2019-02-05T03:18:36.435Z,13.37
2019-02-05T03:28:38.996Z,11.53
2019-02-05T03:39:00.390Z,13.53
2019-02-05T03:49:02.988Z,11.97
2019-02-05T03:59:46.972Z,12.80
2019-02-05T04:10:31.381Z,15.65
2019-02-05T04:21:27.572Z,17.77
2019-02-05T04:31:46.647Z,26.25
2019-02-05T04:42:19.532Z,10.50
2019-02-05T04:53:16.495Z,14.80
2019-02-05T05:04:11.509Z,10.55
2019-02-05T05:14:14.020Z,12.50
2019-02-05T05:24:16.919Z,12.47
2019-02-05T05:34:19.646Z,16.67
2019-02-05T05:44:21.805Z,16.17
2019-02-05T05:54:23.894Z,12.60
2019-02-05T06:04:26.236Z,21.02
2019-02-05T06:14:28.175Z,19.15
2019-02-05T06:24:30.368Z,17.90
2019-02-05T06:34:32.480Z,19.25
2019-02-05T06:44:34.435Z,17.80
2019-02-05T06:54:37.074Z,23.35
2019-02-05T07:04:39.175Z,19.87
2019-02-05T07:14:41.307Z,19.23
2019-02-05T07:24:44.357Z,18.30
2019-02-05T07:34:46.449Z,22.77
2019-02-05T07:44:51.269Z,18.52
2019-02-05T07:54:55.676Z,22.07
2019-02-05T08:05:00.631Z,16.77
2019-02-05T08:15:01.468Z,14.78
2019-02-05T08:25:06.919Z,13.00
2019-02-05T08:35:10.134Z,18.52
2019-02-05T08:45:17.771Z,20.25
2019-02-05T08:55:19.912Z,22.48
2019-02-05T09:05:22.168Z,21.23
2019-02-05T09:15:29.382Z,21.07
2019-02-05T09:25:28.135Z,21.60
2019-02-05T09:35:30.827Z,14.13
2019-02-05T09:45:32.811Z,18.73
2019-02-05T09:55:36.074Z,19.50
2019-02-05T10:15:40.392Z,20.82
2019-02-05T10:25:42.639Z,18.93
2019-02-05T10:35:44.775Z,22.25
2019-02-05T10:45:46.928Z,22.67
2019-02-05T10:55:54.990Z,21.33
2019-02-05T11:05:57.024Z,23.10
2019-02-05T11:15:59.371Z,30.88
2019-02-05T11:26:01.744Z,27.30
2019-02-05T11:36:04.115Z,41.57
2019-02-05T11:46:06.801Z,35.17
2019-02-05T11:56:09.075Z,23.47
2019-02-05T12:06:11.596Z,25.97
2019-02-05T12:16:13.815Z,21.85
2019-02-05T12:26:16.239Z,26.35
2019-02-05T12:36:18.246Z,23.38
2019-02-05T12:46:20.251Z,22.15
2019-02-05T12:56:22.923Z,24.07
2019-02-05T13:06:25.396Z,22.07
2019-02-05T13:16:27.935Z,21.23
2019-02-05T13:26:30.765Z,24.15
2019-02-05T13:36:33.275Z,22.77
2019-02-05T13:46:35.333Z,18.53
2019-02-05T13:56:37.655Z,20.00
2019-02-05T14:06:40.185Z,19.05
2019-02-05T14:16:42.563Z,17.40
2019-02-05T14:26:45.094Z,21.65
2019-02-05T14:36:47.497Z,21.63
2019-02-05T14:46:49.727Z,24.72
2019-02-05T14:56:51.852Z,20.62
2019-02-05T15:06:53.840Z,21.10
2019-02-05T15:16:56.026Z,18.12
2019-02-05T15:26:59.685Z,18.70
2019-02-05T15:37:03.451Z,20.43
2019-02-05T15:47:05.440Z,21.20
2019-02-05T15:57:07.407Z,30.35
2019-02-05T16:07:09.415Z,23.62
2019-02-05T16:17:11.404Z,25.82
2019-02-05T16:27:13.941Z,24.50
2019-02-05T16:37:18.778Z,22.40
2019-02-05T16:47:20.951Z,23.98
2019-02-05T16:57:23.189Z,25.55
2019-02-05T17:07:25.312Z,28.02
2019-02-05T17:17:27.357Z,22.07
2019-02-05T17:27:30.579Z,27.90
2019-02-05T17:37:32.980Z,24.47
2019-02-05T17:47:34.952Z,24.05
2019-02-05T17:57:37.154Z,27.55
2019-02-05T18:07:39.161Z,29.80
2019-02-05T18:17:41.504Z,25.50
2019-02-05T18:27:44.649Z,28.87
2019-02-05T18:37:46.764Z,26.05
2019-02-05T18:47:48.773Z,30.77
2019-02-05T18:57:51.076Z,23.35
2019-02-05T19:07:53.176Z,28.92
2019-02-05T19:17:55.088Z,20.68
2019-02-05T19:27:58.029Z,32.30
2019-02-05T19:38:00.458Z,27.57
2019-02-05T19:48:02.833Z,26.07
2019-02-05T19:58:05.240Z,24.70
2019-02-05T20:08:07.495Z,22.37
2019-02-05T20:18:10.104Z,21.00
2019-02-05T20:28:12.288Z,24.20
2019-02-05T20:38:14.288Z,37.98
2019-02-05T20:48:16.316Z,31.62
2019-02-05T20:58:18.835Z,32.53
2019-02-05T21:08:20.889Z,26.77
2019-02-05T21:18:23.539Z,27.77
2019-02-05T21:28:25.576Z,24.90
2019-02-05T21:38:27.567Z,24.37
2019-02-05T21:48:29.581Z,28.45
2019-02-05T21:58:31.704Z,21.70
2019-02-05T22:08:33.684Z,22.95
2019-02-05T22:18:35.920Z,23.62
2019-02-05T22:28:40.028Z,24.97
2019-02-05T22:38:42.968Z,25.45
2019-02-05T22:58:47.126Z,22.87
2019-02-05T23:08:49.572Z,25.25
2019-02-05T23:18:53.040Z,24.27
2019-02-05T23:28:55.042Z,28.07
2019-02-05T23:38:57.143Z,22.90
2019-02-05T23:48:59.131Z,28.30
2019-02-05T23:59:01.147Z,21.87
